Time;durP1;ratioP1;P1;durP2;ratioP2;P2;SDS_P1;SDS_P2;PMS_P1;PMS_P2;Temp;Humidity;BMP_temperature;BMP_pressure;BME280_temperature;BME280_humidity;BME280_pressure;Samples;Min_cycle;Max_cycle;Signal;HPM_P1;HPM_P2
2022/09/13 00:00:15;;;;;;;0.30;0.30;;;;;;;;;;4944932;28;20195;-84
2022/09/13 00:02:44;;;;;;;0.83;0.83;;;;;;;;;;4957810;28;20202;-84
2022/09/13 00:05:12;;;;;;;0.73;0.73;;;;;;;;;;4958086;28;20226;-84
2022/09/13 00:07:40;;;;;;;0.40;0.40;;;;;;;;;;4972477;28;20225;-84
2022/09/13 00:10:09;;;;;;;0.40;0.40;;;;;;;;;;4976994;28;20221;-84
2022/09/13 00:12:37;;;;;;;0.80;0.80;;;;;;;;;;4975121;28;20259;-84
2022/09/13 00:15:08;;;;;;;0.83;0.83;;;;;;;;;;4966702;28;20255;-84
2022/09/13 00:17:37;;;;;;;0.40;0.40;;;;;;;;;;4993901;28;20242;-84
2022/09/13 00:20:05;;;;;;;0.30;0.30;;;;;;;;;;4976865;28;20301;-84
2022/09/13 00:22:34;;;;;;;1.03;1.03;;;;;;;;;;4977071;28;20189;-84
2022/09/13 00:25:02;;;;;;;0.30;0.30;;;;;;;;;;4977005;28;20214;-84
2022/09/13 00:27:32;;;;;;;1.50;0.83;;;;;;;;;;4976782;28;20235;-84
2022/09/13 00:30:01;;;;;;;0.30;0.30;;;;;;;;;;4994383;28;20203;-84
2022/09/13 00:32:31;;;;;;;1.70;1.00;;;;;;;;;;4976257;28;20286;-84
2022/09/13 00:34:59;;;;;;;0.50;0.50;;;;;;;;;;4976856;28;20301;-84
2022/09/13 00:37:27;;;;;;;2.70;2.50;;;;;;;;;;4993601;28;20279;-84
2022/09/13 00:39:56;;;;;;;1.20;1.20;;;;;;;;;;4976547;28;20202;-84
2022/09/13 00:42:26;;;;;;;0.30;0.30;;;;;;;;;;4964223;28;20241;-84
2022/09/13 00:44:56;;;;;;;3.10;1.57;;;;;;;;;;4963933;28;20291;-84
2022/09/13 00:47:27;;;;;;;0.67;0.67;;;;;;;;;;4976729;28;20209;-84
2022/09/13 00:49:58;;;;;;;1.30;1.20;;;;;;;;;;4993664;28;20218;-84
2022/09/13 00:52:28;;;;;;;3.20;0.67;;;;;;;;;;4984649;28;20224;-83
2022/09/13 00:54:58;;;;;;;0.30;0.30;;;;;;;;;;4990367;28;20195;-84
2022/09/13 00:57:27;;;;;;;1.50;1.40;;;;;;;;;;4993825;28;20197;-84
2022/09/13 00:59:58;;;;;;;0.70;0.70;;;;;;;;;;4993766;28;20200;-83
2022/09/13 01:02:27;;;;;;;0.50;0.50;;;;;;;;;;4976636;28;20262;-84
2022/09/13 01:04:57;;;;;;;0.40;0.40;;;;;;;;;;4976530;28;20203;-84
2022/09/13 01:07:25;;;;;;;0.30;0.30;;;;;;;;;;4976206;28;20249;-83
2022/09/13 01:09:54;;;;;;;1.00;1.00;;;;;;;;;;4993645;28;20263;-84
2022/09/13 01:12:30;;;;;;;0.50;0.50;;;;;;;;;;4976898;28;20253;-84
2022/09/13 01:14:59;;;;;;;3.90;0.50;;;;;;;;;;4980352;28;20210;-84
2022/09/13 01:17:29;;;;;;;0.47;0.47;;;;;;;;;;4977602;28;20308;-84
2022/09/13 01:19:59;;;;;;;0.87;0.87;;;;;;;;;;4970608;28;20233;-84
2022/09/13 01:22:51;;;;;;;0.30;0.30;;;;;;;;;;4979777;28;20227;-84
2022/09/13 01:25:46;;;;;;;0.40;0.40;;;;;;;;;;4997499;28;20221;-84
2022/09/13 01:28:33;;;;;;;0.90;0.90;;;;;;;;;;4987915;28;20228;-84
2022/09/13 01:31:07;;;;;;;1.27;1.17;;;;;;;;;;4973371;28;20292;-84
2022/09/13 01:33:43;;;;;;;0.40;0.40;;;;;;;;;;4974529;28;20323;-84
2022/09/13 01:36:20;;;;;;;0.67;0.67;;;;;;;;;;4980150;28;20193;-84
2022/09/13 01:38:57;;;;;;;0.80;0.80;;;;;;;;;;4979797;28;20221;-84
2022/09/13 01:41:33;;;;;;;1.93;1.70;;;;;;;;;;4979826;28;20208;-84
2022/09/13 01:44:07;;;;;;;1.70;1.60;;;;;;;;;;4967044;28;20231;-84
2022/09/13 01:46:40;;;;;;;1.03;0.93;;;;;;;;;;4979669;28;20222;-84
2022/09/13 01:49:15;;;;;;;0.30;0.30;;;;;;;;;;4979624;28;20280;-84
2022/09/13 01:51:47;;;;;;;1.13;1.13;;;;;;;;;;4979808;28;20228;-84
2022/09/13 01:54:18;;;;;;;0.57;0.57;;;;;;;;;;4996886;28;20202;-84
2022/09/13 01:56:52;;;;;;;0.40;0.40;;;;;;;;;;4979299;28;20243;-84
2022/09/13 01:59:22;;;;;;;0.30;0.30;;;;;;;;;;4979501;28;20207;-84
2022/09/13 02:01:55;;;;;;;0.57;0.57;;;;;;;;;;4979449;28;20309;-84
2022/09/13 02:04:26;;;;;;;2.10;2.00;;;;;;;;;;4979150;28;20204;-84
2022/09/13 02:07:01;;;;;;;1.33;1.33;;;;;;;;;;4996461;28;20333;-84
2022/09/13 02:09:31;;;;;;;0.30;0.30;;;;;;;;;;4979033;28;20231;-84
2022/09/13 02:12:05;;;;;;;0.40;0.40;;;;;;;;;;4979492;28;20236;-84
2022/09/13 02:14:35;;;;;;;0.57;0.57;;;;;;;;;;4973731;28;20239;-85
2022/09/13 02:17:07;;;;;;;0.30;0.30;;;;;;;;;;4977244;28;20213;-84
2022/09/13 02:19:37;;;;;;;1.57;1.47;;;;;;;;;;4974655;28;20217;-84
2022/09/13 02:22:07;;;;;;;0.30;0.30;;;;;;;;;;4979319;28;20302;-84
2022/09/13 02:24:37;;;;;;;0.30;0.30;;;;;;;;;;4977489;28;20300;-84
2022/09/13 02:27:08;;;;;;;0.30;0.30;;;;;;;;;;4979207;28;20228;-84
2022/09/13 02:29:38;;;;;;;0.30;0.30;;;;;;;;;;4978946;28;20201;-84
2022/09/13 02:32:10;;;;;;;0.30;0.30;;;;;;;;;;4996138;28;20214;-84
2022/09/13 02:34:40;;;;;;;1.67;1.57;;;;;;;;;;4978913;28;20263;-84
2022/09/13 02:37:10;;;;;;;1.63;1.53;;;;;;;;;;4996057;28;20223;-84
2022/09/13 02:39:42;;;;;;;0.70;0.70;;;;;;;;;;4978735;28;20215;-83
2022/09/13 02:42:14;;;;;;;2.77;1.27;;;;;;;;;;4978880;28;20197;-84
2022/09/13 02:44:44;;;;;;;4.50;0.70;;;;;;;;;;4977562;28;20200;-84
2022/09/13 02:47:23;;;;;;;0.60;0.60;;;;;;;;;;4967710;28;20204;-84
2022/09/13 02:49:56;;;;;;;0.77;0.60;;;;;;;;;;4978315;28;20210;-84
2022/09/13 02:52:32;;;;;;;0.30;0.30;;;;;;;;;;4995841;28;20296;-84
2022/09/13 02:55:03;;;;;;;0.50;0.50;;;;;;;;;;4978746;28;20201;-84
2022/09/13 02:57:34;;;;;;;0.50;0.50;;;;;;;;;;4978575;28;20302;-84
2022/09/13 03:00:03;;;;;;;0.50;0.50;;;;;;;;;;4978409;28;20228;-84
2022/09/13 03:02:34;;;;;;;0.83;0.70;;;;;;;;;;4966523;28;20244;-84
2022/09/13 03:05:02;;;;;;;0.37;0.37;;;;;;;;;;4978429;28;20213;-84
2022/09/13 03:07:31;;;;;;;0.40;0.40;;;;;;;;;;4978463;28;20285;-84
2022/09/13 03:10:03;;;;;;;0.30;0.30;;;;;;;;;;4996001;28;20199;-84
2022/09/13 03:12:44;;;;;;;2.80;1.90;;;;;;;;;;4978328;28;20217;-84
2022/09/13 03:15:16;;;;;;;0.33;0.33;;;;;;;;;;4977927;28;20219;-84
2022/09/13 03:17:53;;;;;;;0.20;0.20;;;;;;;;;;4995655;28;20226;-84
2022/09/13 03:20:26;;;;;;;0.90;0.90;;;;;;;;;;4959322;28;20271;-84
2022/09/13 03:23:01;;;;;;;1.00;0.87;;;;;;;;;;4988347;28;20224;-84
2022/09/13 03:25:39;;;;;;;0.97;0.97;;;;;;;;;;4966915;28;20200;-84
2022/09/13 03:28:13;;;;;;;2.23;0.60;;;;;;;;;;4977896;28;20291;-84
2022/09/13 03:30:44;;;;;;;0.40;0.40;;;;;;;;;;4977976;28;20268;-84
2022/09/13 03:33:17;;;;;;;0.40;0.40;;;;;;;;;;4977651;28;20293;-84
2022/09/13 03:35:52;;;;;;;0.30;0.30;;;;;;;;;;4964877;28;20283;-84
2022/09/13 03:38:22;;;;;;;2.53;0.87;;;;;;;;;;4978357;28;20194;-84
2022/09/13 03:40:53;;;;;;;1.70;1.37;;;;;;;;;;4977694;28;20201;-84
2022/09/13 03:43:26;;;;;;;0.53;0.53;;;;;;;;;;4978115;28;20195;-84
2022/09/13 03:45:56;;;;;;;1.60;1.00;;;;;;;;;;4977465;28;20200;-84
2022/09/13 03:48:26;;;;;;;0.90;0.90;;;;;;;;;;4977561;28;20213;-84
2022/09/13 03:50:55;;;;;;;0.60;0.60;;;;;;;;;;4977451;28;20200;-84
2022/09/13 03:53:24;;;;;;;0.40;0.40;;;;;;;;;;4977809;28;20259;-84
2022/09/13 03:55:53;;;;;;;3.83;1.47;;;;;;;;;;4972973;28;20201;-84
2022/09/13 03:58:22;;;;;;;0.30;0.30;;;;;;;;;;4987680;28;20290;-84
2022/09/13 04:00:52;;;;;;;0.30;0.30;;;;;;;;;;4977236;28;20225;-84
2022/09/13 04:03:20;;;;;;;0.43;0.43;;;;;;;;;;4994767;28;20207;-84
2022/09/13 04:05:50;;;;;;;0.53;0.53;;;;;;;;;;4993341;28;20222;-85
2022/09/13 04:08:19;;;;;;;0.30;0.30;;;;;;;;;;4994710;28;20230;-84
2022/09/13 04:10:50;;;;;;;0.30;0.30;;;;;;;;;;4976928;28;20232;-84
2022/09/13 04:13:19;;;;;;;0.57;0.57;;;;;;;;;;4976837;28;20241;-84
2022/09/13 04:15:51;;;;;;;3.43;0.97;;;;;;;;;;4977237;28;20222;-84
2022/09/13 04:18:19;;;;;;;1.17;1.13;;;;;;;;;;4984683;28;20215;-84
2022/09/13 04:20:55;;;;;;;1.07;1.07;;;;;;;;;;4977154;28;20241;-84
2022/09/13 04:23:24;;;;;;;1.00;0.93;;;;;;;;;;4977237;28;20221;-84
2022/09/13 04:25:52;;;;;;;0.93;0.73;;;;;;;;;;4977031;28;20206;-84
2022/09/13 04:28:22;;;;;;;2.37;1.67;;;;;;;;;;4977143;28;20204;-84
2022/09/13 04:30:50;;;;;;;2.10;1.33;;;;;;;;;;4976913;28;20196;-84
2022/09/13 04:33:19;;;;;;;1.13;1.13;;;;;;;;;;4976716;28;20265;-84
2022/09/13 04:35:47;;;;;;;4.73;1.23;;;;;;;;;;4976882;28;20214;-83
2022/09/13 04:38:17;;;;;;;1.47;1.00;;;;;;;;;;4964629;28;20259;-84
2022/09/13 04:40:45;;;;;;;1.60;1.17;;;;;;;;;;4976777;28;20206;-84
2022/09/13 04:43:14;;;;;;;4.67;0.80;;;;;;;;;;4976477;28;20217;-84
2022/09/13 04:45:42;;;;;;;0.50;0.50;;;;;;;;;;4976575;28;20194;-84
2022/09/13 04:48:10;;;;;;;2.07;1.37;;;;;;;;;;4993862;28;20197;-84
2022/09/13 04:50:39;;;;;;;1.17;1.13;;;;;;;;;;4975191;28;20263;-83
2022/09/13 04:53:07;;;;;;;0.77;0.77;;;;;;;;;;4966665;28;20198;-84
2022/09/13 04:55:37;;;;;;;0.43;0.43;;;;;;;;;;4976877;28;20265;-84
2022/09/13 04:58:06;;;;;;;1.43;0.77;;;;;;;;;;4976499;28;20277;-83
2022/09/13 05:00:34;;;;;;;2.77;1.63;;;;;;;;;;4976474;28;20225;-84
2022/09/13 05:03:02;;;;;;;3.70;1.80;;;;;;;;;;4976595;28;20230;-84
2022/09/13 05:05:31;;;;;;;0.67;0.50;;;;;;;;;;4976621;28;20206;-84
2022/09/13 05:07:59;;;;;;;0.67;0.60;;;;;;;;;;4976381;28;20233;-84
2022/09/13 05:10:28;;;;;;;0.47;0.47;;;;;;;;;;4964379;28;20260;-84
2022/09/13 05:12:57;;;;;;;1.57;1.33;;;;;;;;;;4976496;28;20251;-84
2022/09/13 05:15:26;;;;;;;0.40;0.40;;;;;;;;;;4970993;28;20241;-84
2022/09/13 05:17:54;;;;;;;0.30;0.30;;;;;;;;;;4970492;28;20252;-84
2022/09/13 05:20:22;;;;;;;0.70;0.70;;;;;;;;;;4964476;28;20200;-84
2022/09/13 05:22:51;;;;;;;0.37;0.37;;;;;;;;;;4976486;28;20262;-84
2022/09/13 05:25:19;;;;;;;0.30;0.30;;;;;;;;;;4993729;28;20277;-84
2022/09/13 05:27:53;;;;;;;0.50;0.50;;;;;;;;;;4975974;28;20207;-84
2022/09/13 05:30:22;;;;;;;0.40;0.40;;;;;;;;;;4993613;28;20253;-84
2022/09/13 05:32:51;;;;;;;1.10;1.00;;;;;;;;;;4976333;28;20207;-84
2022/09/13 05:35:19;;;;;;;0.43;0.43;;;;;;;;;;4976639;28;20216;-84
2022/09/13 05:37:49;;;;;;;0.30;0.30;;;;;;;;;;4993109;28;20286;-83
2022/09/13 05:40:18;;;;;;;0.50;0.50;;;;;;;;;;4976060;28;20243;-84
2022/09/13 05:42:46;;;;;;;0.40;0.40;;;;;;;;;;4975856;28;20195;-84
2022/09/13 05:45:15;;;;;;;0.40;0.40;;;;;;;;;;4976084;28;20246;-84
2022/09/13 05:47:45;;;;;;;1.40;0.90;;;;;;;;;;4976103;28;20238;-84
2022/09/13 05:50:13;;;;;;;0.30;0.30;;;;;;;;;;4976280;28;20273;-84
2022/09/13 05:53:02;;;;;;;0.30;0.30;;;;;;;;;;4993424;28;20204;-83
2022/09/13 05:55:30;;;;;;;0.30;0.30;;;;;;;;;;4976144;28;20223;-84
2022/09/13 05:57:59;;;;;;;0.30;0.30;;;;;;;;;;4975928;28;20278;-83
2022/09/13 06:00:27;;;;;;;0.97;0.50;;;;;;;;;;4966999;28;20227;-82
2022/09/13 06:02:58;;;;;;;0.40;0.40;;;;;;;;;;4979688;28;20256;-82
2022/09/13 06:05:28;;;;;;;0.80;0.80;;;;;;;;;;4979839;28;20197;-82
2022/09/13 06:07:59;;;;;;;0.67;0.60;;;;;;;;;;4979553;28;20250;-83
2022/09/13 06:10:27;;;;;;;0.40;0.40;;;;;;;;;;4979311;28;20204;-82
2022/09/13 06:12:56;;;;;;;1.17;1.17;;;;;;;;;;4996641;28;20200;-83
2022/09/13 06:15:24;;;;;;;0.40;0.40;;;;;;;;;;4979275;28;20251;-83
2022/09/13 06:17:53;;;;;;;0.30;0.30;;;;;;;;;;4996629;28;20223;-83
2022/09/13 06:20:23;;;;;;;0.30;0.30;;;;;;;;;;4966824;28;20287;-83
2022/09/13 06:22:51;;;;;;;0.37;0.37;;;;;;;;;;4978821;28;20214;-83
2022/09/13 06:25:20;;;;;;;0.37;0.37;;;;;;;;;;4979297;28;20208;-84
2022/09/13 06:27:48;;;;;;;0.30;0.30;;;;;;;;;;4979077;28;20257;-82
2022/09/13 06:30:18;;;;;;;0.33;0.33;;;;;;;;;;4979250;28;20210;-83
2022/09/13 06:32:46;;;;;;;0.63;0.63;;;;;;;;;;4979266;28;20213;-82
2022/09/13 06:35:15;;;;;;;0.30;0.30;;;;;;;;;;4979264;28;20257;-82
2022/09/13 06:37:45;;;;;;;0.30;0.30;;;;;;;;;;4995865;28;20295;-83
2022/09/13 06:40:13;;;;;;;0.77;0.77;;;;;;;;;;4979065;28;20209;-82
2022/09/13 06:42:42;;;;;;;0.30;0.30;;;;;;;;;;4978992;28;20208;-82
2022/09/13 06:45:11;;;;;;;0.37;0.37;;;;;;;;;;4968492;28;20216;-83
2022/09/13 06:47:39;;;;;;;0.60;0.60;;;;;;;;;;4976774;28;20207;-83
2022/09/13 06:50:08;;;;;;;0.27;0.27;;;;;;;;;;4978747;28;20232;-82
2022/09/13 06:52:36;;;;;;;0.20;0.20;;;;;;;;;;4995924;28;20209;-83
2022/09/13 06:55:22;;;;;;;0.30;0.30;;;;;;;;;;4978604;28;20218;-82
2022/09/13 06:57:59;;;;;;;0.50;0.50;;;;;;;;;;4973828;28;20201;-82
2022/09/13 07:00:33;;;;;;;0.53;0.53;;;;;;;;;;4969279;28;20204;-82
2022/09/13 07:03:06;;;;;;;0.37;0.37;;;;;;;;;;4973604;28;20214;-83
2022/09/13 07:05:39;;;;;;;0.33;0.33;;;;;;;;;;4974904;28;20236;-83
2022/09/13 07:08:09;;;;;;;0.30;0.30;;;;;;;;;;4969229;28;20251;-83
2022/09/13 07:10:52;;;;;;;0.20;0.20;;;;;;;;;;4966146;28;20201;-83
2022/09/13 07:13:32;;;;;;;2.67;1.50;;;;;;;;;;4974032;28;20221;-83
2022/09/13 07:16:02;;;;;;;0.40;0.40;;;;;;;;;;4979975;28;20227;-83
2022/09/13 07:18:32;;;;;;;0.33;0.33;;;;;;;;;;4969397;28;20212;-83
2022/09/13 07:21:03;;;;;;;0.20;0.20;;;;;;;;;;4964262;28;20213;-84
2022/09/13 07:23:32;;;;;;;3.50;1.67;;;;;;;;;;4976952;28;20211;-83
2022/09/13 07:26:04;;;;;;;2.33;0.73;;;;;;;;;;4976998;28;20202;-83
2022/09/13 07:28:57;;;;;;;0.30;0.30;;;;;;;;;;4986686;28;20201;-82
2022/09/13 07:31:35;;;;;;;0.40;0.40;;;;;;;;;;4964174;28;20216;-83
2022/09/13 07:34:08;;;;;;;0.70;0.70;;;;;;;;;;4970790;28;20298;-85
2022/09/13 07:36:43;;;;;;;3.63;2.30;;;;;;;;;;4958499;28;20248;-85
2022/09/13 07:39:24;;;;;;;0.33;0.33;;;;;;;;;;4961099;28;20231;-85
2022/09/13 07:42:03;;;;;;;1.33;0.67;;;;;;;;;;4964978;28;20203;-84
2022/09/13 07:44:32;;;;;;;0.80;0.80;;;;;;;;;;4966230;28;20200;-84
2022/09/13 07:47:14;;;;;;;0.67;0.67;;;;;;;;;;4980533;28;20208;-84
2022/09/13 07:50:02;;;;;;;0.67;0.67;;;;;;;;;;4968147;28;20201;-84
2022/09/13 07:52:36;;;;;;;1.43;0.63;;;;;;;;;;4975195;28;20209;-85
2022/09/13 07:55:10;;;;;;;8.93;2.33;;;;;;;;;;4966141;28;20231;-84
2022/09/13 07:57:44;;;;;;;0.70;0.70;;;;;;;;;;4982566;28;20270;-84
2022/09/13 08:00:18;;;;;;;0.67;0.67;;;;;;;;;;4966086;28;20403;-83
2022/09/13 08:02:53;;;;;;;1.27;1.03;;;;;;;;;;4969016;28;20209;-84
2022/09/13 08:05:33;;;;;;;3.40;1.07;;;;;;;;;;4967945;28;20207;-83
2022/09/13 08:08:08;;;;;;;0.67;0.67;;;;;;;;;;4965473;28;20247;-83
2022/09/13 08:10:45;;;;;;;0.37;0.37;;;;;;;;;;4962898;28;20226;-84
2022/09/13 08:13:24;;;;;;;0.57;0.57;;;;;;;;;;4982620;28;20219;-83
2022/09/13 08:16:23;;;;;;;2.10;1.20;;;;;;;;;;4966977;28;20250;-83
2022/09/13 08:19:00;;;;;;;5.73;1.37;;;;;;;;;;4969749;28;20296;-84
2022/09/13 08:21:42;;;;;;;0.50;0.50;;;;;;;;;;4970975;28;20198;-83
2022/09/13 08:24:14;;;;;;;0.83;0.40;;;;;;;;;;4964125;28;20299;-83
2022/09/13 08:26:50;;;;;;;1.43;0.97;;;;;;;;;;4964887;28;20244;-83
2022/09/13 08:33:02;;;;;;;0.63;0.63;;;;;;;;;;4951684;28;20204;-83
2022/09/13 08:35:51;;;;;;;;;;;;;;;;;;;;;
2022/09/13 08:38:24;;;;;;;0.70;0.70;;;;;;;;;;4968843;28;20209;-84
2022/09/13 08:41:30;;;;;;;;;;;;;;;;;;;;;
2022/09/13 08:51:06;;;;;;;1.97;0.70;;;;;;;;;;4940424;28;20208;-84
2022/09/13 08:53:59;;;;;;;4.63;0.80;;;;;;;;;;4924751;29;20213;-84
2022/09/13 08:56:59;;;;;;;4.70;1.00;;;;;;;;;;4936060;28;20349;-83
2022/09/13 08:59:37;;;;;;;0.40;0.40;;;;;;;;;;4959209;28;20277;-84
2022/09/13 09:02:19;;;;;;;5.80;0.77;;;;;;;;;;4962775;28;20284;-85
2022/09/13 09:05:13;;;;;;;0.40;0.40;;;;;;;;;;4966978;28;20301;-87
2022/09/13 09:08:27;;;;;;;0.40;0.40;;;;;;;;;;4964891;28;20240;-83
2022/09/13 09:11:23;;;;;;;0.47;0.47;;;;;;;;;;4968786;28;20225;-83
2022/09/13 09:13:57;;;;;;;0.50;0.50;;;;;;;;;;4965105;28;20418;-84
2022/09/13 09:16:53;;;;;;;0.60;0.60;;;;;;;;;;4966893;28;20223;-85
2022/09/13 09:19:34;;;;;;;0.50;0.50;;;;;;;;;;4968652;28;20204;-85
2022/09/13 09:22:24;;;;;;;0.93;0.90;;;;;;;;;;4969126;28;20204;-85
2022/09/13 09:25:06;;;;;;;1.23;0.50;;;;;;;;;;4960107;28;20230;-83
2022/09/13 09:27:56;;;;;;;2.57;0.60;;;;;;;;;;4972193;28;20290;-84
2022/09/13 09:30:51;;;;;;;0.63;0.63;;;;;;;;;;4961919;28;20309;-84
2022/09/13 09:33:40;;;;;;;1.93;0.50;;;;;;;;;;4965574;28;20212;-83
2022/09/13 09:36:25;;;;;;;0.60;0.60;;;;;;;;;;4971996;28;20248;-83
2022/09/13 09:39:00;;;;;;;8.83;2.83;;;;;;;;;;4965478;28;20400;-84
2022/09/13 09:41:37;;;;;;;0.50;0.50;;;;;;;;;;4965532;28;20203;-84
2022/09/13 09:44:32;;;;;;;1.23;0.90;;;;;;;;;;4971535;28;20213;-84
2022/09/13 09:47:17;;;;;;;0.50;0.50;;;;;;;;;;4967011;28;20210;-85
2022/09/13 09:50:09;;;;;;;0.93;0.93;;;;;;;;;;4965202;28;20202;-82
2022/09/13 09:53:00;;;;;;;4.43;0.97;;;;;;;;;;4989283;28;20415;-85
2022/09/13 09:56:10;;;;;;;1.70;0.50;;;;;;;;;;4966017;28;20783;-85
2022/09/13 09:58:49;;;;;;;0.93;0.77;;;;;;;;;;4959502;28;20216;-83
2022/09/13 10:01:25;;;;;;;0.63;0.50;;;;;;;;;;4978447;28;20229;-85
2022/09/13 10:04:07;;;;;;;0.30;0.30;;;;;;;;;;4977663;28;20237;-85
2022/09/13 10:06:50;;;;;;;1.00;0.63;;;;;;;;;;4991880;28;20235;-84
2022/09/13 10:09:57;;;;;;;0.77;0.77;;;;;;;;;;4935633;29;20216;-83
2022/09/13 10:12:46;;;;;;;0.77;0.77;;;;;;;;;;4922592;29;20207;-84
2022/09/13 10:15:22;;;;;;;0.40;0.40;;;;;;;;;;4968447;28;20214;-85
2022/09/13 10:18:06;;;;;;;0.87;0.87;;;;;;;;;;4973782;28;20261;-83
2022/09/13 10:21:12;;;;;;;2.20;1.50;;;;;;;;;;4975636;28;20258;-83
2022/09/13 10:26:49;;;;;;;2.93;0.70;;;;;;;;;;4980747;28;20206;-84
2022/09/13 10:33:52;;;;;;;1.13;0.53;;;;;;;;;;4923442;28;20215;-84
2022/09/13 10:36:32;;;;;;;1.03;1.03;;;;;;;;;;4977621;28;20222;-85
2022/09/13 10:45:49;;;;;;;1.37;1.07;;;;;;;;;;4950285;28;20208;-85
2022/09/13 10:59:27;;;;;;;1.37;0.93;;;;;;;;;;4769474;29;20212;-86
2022/09/13 11:02:27;;;;;;;2.83;1.17;;;;;;;;;;4765213;29;20234;-82
2022/09/13 11:05:36;;;;;;;0.50;0.50;;;;;;;;;;4817406;29;20224;-83
2022/09/13 11:13:08;;;;;;;1.87;1.10;;;;;;;;;;4784794;29;20311;-84
2022/09/13 11:16:19;;;;;;;1.43;0.90;;;;;;;;;;4793995;29;20219;-82
2022/09/13 11:19:19;;;;;;;2.30;0.80;;;;;;;;;;4820725;29;20221;-85
2022/09/13 11:22:18;;;;;;;1.80;0.70;;;;;;;;;;4789532;29;20214;-82
2022/09/13 11:25:28;;;;;;;0.43;0.43;;;;;;;;;;4814375;29;20222;-84
2022/09/13 11:28:50;;;;;;;;;;;;;;;;;;;;;
2022/09/13 11:31:55;;;;;;;0.40;0.40;;;;;;;;;;4890091;29;20208;-84
2022/09/13 11:34:32;;;;;;;1.37;0.83;;;;;;;;;;4939781;28;20205;-82
2022/09/13 11:37:18;;;;;;;0.60;0.60;;;;;;;;;;4943540;28;20235;-83
2022/09/13 11:39:50;;;;;;;0.80;0.80;;;;;;;;;;4944077;28;20293;-83
2022/09/13 11:42:27;;;;;;;0.30;0.30;;;;;;;;;;4943319;28;20212;-84
2022/09/13 11:45:09;;;;;;;0.30;0.30;;;;;;;;;;4941063;28;20208;-83
2022/09/13 11:47:44;;;;;;;0.67;0.63;;;;;;;;;;4957818;28;20208;-83
2022/09/13 11:50:24;;;;;;;0.50;0.50;;;;;;;;;;4954703;28;20201;-83
2022/09/13 11:52:58;;;;;;;5.53;1.30;;;;;;;;;;4944033;28;20212;-88
2022/09/13 11:55:29;;;;;;;2.00;1.33;;;;;;;;;;4955830;28;20212;-83
2022/09/13 11:58:00;;;;;;;1.00;1.00;;;;;;;;;;4941397;28;20231;-85
2022/09/13 12:00:31;;;;;;;0.30;0.30;;;;;;;;;;4946823;28;20212;-84
2022/09/13 12:03:03;;;;;;;0.77;0.77;;;;;;;;;;4948195;28;20205;-86
2022/09/13 12:05:38;;;;;;;5.40;0.97;;;;;;;;;;4945490;28;20220;-86
2022/09/13 12:08:08;;;;;;;0.57;0.57;;;;;;;;;;4960898;28;20240;-86
2022/09/13 12:10:39;;;;;;;0.50;0.40;;;;;;;;;;4965315;28;20231;-84
2022/09/13 12:13:11;;;;;;;2.80;0.80;;;;;;;;;;4967583;28;20201;-86
2022/09/13 12:15:40;;;;;;;0.67;0.50;;;;;;;;;;4963223;28;20289;-86
2022/09/13 12:18:22;;;;;;;0.40;0.40;;;;;;;;;;4963295;28;20237;-85
2022/09/13 12:20:52;;;;;;;0.43;0.40;;;;;;;;;;4959131;28;20206;-85
2022/09/13 12:23:25;;;;;;;0.73;0.73;;;;;;;;;;4970996;28;20196;-84
2022/09/13 12:26:01;;;;;;;0.60;0.50;;;;;;;;;;4960450;28;20210;-85
2022/09/13 12:28:32;;;;;;;1.00;1.00;;;;;;;;;;4961659;28;20208;-85
2022/09/13 12:31:05;;;;;;;0.83;0.67;;;;;;;;;;4963607;28;20286;-83
2022/09/13 12:33:39;;;;;;;0.30;0.30;;;;;;;;;;4961170;28;20220;-84
2022/09/13 12:36:19;;;;;;;1.50;1.50;;;;;;;;;;4964402;28;20238;-84
2022/09/13 12:39:09;;;;;;;1.17;1.07;;;;;;;;;;4962549;28;20279;-84
2022/09/13 12:41:46;;;;;;;4.23;0.90;;;;;;;;;;4941670;28;20207;-82
2022/09/13 12:44:23;;;;;;;1.30;0.80;;;;;;;;;;4979359;28;20219;-84
2022/09/13 12:47:11;;;;;;;0.57;0.57;;;;;;;;;;4965393;28;20291;-84
2022/09/13 12:50:01;;;;;;;0.40;0.40;;;;;;;;;;4966249;28;20206;-83
2022/09/13 12:52:52;;;;;;;0.63;0.60;;;;;;;;;;4960945;28;20201;-85
2022/09/13 12:55:39;;;;;;;1.20;1.00;;;;;;;;;;4959390;28;20199;-84
2022/09/13 12:58:24;;;;;;;1.10;0.50;;;;;;;;;;4962253;28;20217;-85
2022/09/13 13:01:04;;;;;;;0.97;0.50;;;;;;;;;;4968164;28;20231;-85
2022/09/13 13:03:37;;;;;;;5.00;1.07;;;;;;;;;;4965837;28;20295;-85
2022/09/13 13:06:12;;;;;;;2.43;1.00;;;;;;;;;;4966245;28;20210;-86
2022/09/13 13:08:47;;;;;;;0.33;0.33;;;;;;;;;;4981136;28;20254;-83
2022/09/13 13:11:16;;;;;;;1.60;0.93;;;;;;;;;;4968514;28;20208;-84
2022/09/13 13:13:53;;;;;;;0.50;0.50;;;;;;;;;;4966070;28;20223;-84
2022/09/13 13:16:26;;;;;;;0.70;0.70;;;;;;;;;;4967530;28;20338;-84
2022/09/13 13:18:55;;;;;;;1.40;1.30;;;;;;;;;;4971877;28;20207;-85
2022/09/13 13:21:28;;;;;;;1.43;0.57;;;;;;;;;;4969447;28;20209;-84
2022/09/13 13:24:15;;;;;;;0.30;0.30;;;;;;;;;;4969746;28;20234;-84
2022/09/13 13:26:48;;;;;;;1.53;0.73;;;;;;;;;;4963869;28;20301;-84
2022/09/13 13:29:18;;;;;;;0.30;0.30;;;;;;;;;;4969606;28;20209;-85
2022/09/13 13:32:07;;;;;;;0.30;0.30;;;;;;;;;;4977975;28;20202;-83
2022/09/13 13:34:41;;;;;;;0.20;0.20;;;;;;;;;;4981644;28;20200;-83
2022/09/13 13:37:28;;;;;;;1.63;1.63;;;;;;;;;;4966619;28;20243;-88
2022/09/13 13:40:16;;;;;;;0.23;0.23;;;;;;;;;;4969834;28;20236;-82
2022/09/13 13:42:46;;;;;;;2.23;1.23;;;;;;;;;;4990685;28;20207;-84
2022/09/13 13:45:16;;;;;;;1.50;0.63;;;;;;;;;;4969528;28;20239;-83
2022/09/13 13:48:03;;;;;;;0.93;0.70;;;;;;;;;;4985401;28;20249;-82
2022/09/13 13:50:33;;;;;;;0.40;0.40;;;;;;;;;;4964696;28;20258;-84
2022/09/13 13:53:21;;;;;;;0.57;0.57;;;;;;;;;;4970594;28;20201;-84
2022/09/13 13:56:07;;;;;;;0.57;0.53;;;;;;;;;;4974552;28;20208;-83
2022/09/13 13:58:45;;;;;;;1.07;0.47;;;;;;;;;;4972579;28;20231;-83
2022/09/13 14:01:18;;;;;;;0.33;0.33;;;;;;;;;;4969849;28;20225;-83
2022/09/13 14:04:03;;;;;;;2.67;0.77;;;;;;;;;;4984014;28;20208;-83
2022/09/13 14:06:36;;;;;;;0.97;0.50;;;;;;;;;;4965042;28;20230;-83
2022/09/13 14:09:13;;;;;;;0.93;0.90;;;;;;;;;;4962947;28;20221;-84
2022/09/13 14:11:48;;;;;;;0.37;0.37;;;;;;;;;;4970927;28;20205;-84
2022/09/13 14:14:26;;;;;;;1.33;0.93;;;;;;;;;;4962614;28;20196;-84
2022/09/13 14:17:00;;;;;;;0.37;0.37;;;;;;;;;;4972409;28;20210;-82
2022/09/13 14:19:30;;;;;;;2.33;0.43;;;;;;;;;;4969028;28;20244;-84
2022/09/13 14:22:16;;;;;;;0.50;0.50;;;;;;;;;;4973914;28;20209;-83
2022/09/13 14:24:47;;;;;;;0.30;0.30;;;;;;;;;;4986114;28;20193;-84
2022/09/13 14:27:17;;;;;;;0.63;0.63;;;;;;;;;;4979761;28;20261;-83
2022/09/13 14:29:50;;;;;;;0.30;0.30;;;;;;;;;;4967090;28;20202;-85
2022/09/13 14:32:23;;;;;;;2.27;1.00;;;;;;;;;;4968722;28;20201;-86
2022/09/13 14:34:53;;;;;;;0.30;0.30;;;;;;;;;;4972334;28;20297;-85
2022/09/13 14:37:28;;;;;;;1.70;0.90;;;;;;;;;;4965941;28;20220;-83
2022/09/13 14:39:59;;;;;;;0.30;0.30;;;;;;;;;;4980569;28;20229;-84
2022/09/13 14:42:28;;;;;;;2.43;0.80;;;;;;;;;;4983458;28;20205;-85
2022/09/13 14:44:58;;;;;;;0.67;0.67;;;;;;;;;;4970179;28;20208;-83
2022/09/13 14:47:31;;;;;;;1.13;1.07;;;;;;;;;;4982977;28;20240;-83
2022/09/13 14:50:03;;;;;;;2.70;1.00;;;;;;;;;;4961347;28;20202;-84
2022/09/13 14:52:34;;;;;;;1.60;0.60;;;;;;;;;;4958784;28;20294;-83
2022/09/13 14:55:04;;;;;;;1.23;0.67;;;;;;;;;;4970306;28;20229;-83
2022/09/13 14:57:37;;;;;;;0.50;0.50;;;;;;;;;;4977663;28;20241;-83
2022/09/13 15:00:09;;;;;;;22.00;1.33;;;;;;;;;;4977410;28;20214;-83
2022/09/13 15:02:39;;;;;;;2.57;1.30;;;;;;;;;;4978187;28;20325;-84
2022/09/13 15:05:09;;;;;;;0.73;0.70;;;;;;;;;;4978330;28;20300;-84
2022/09/13 15:07:38;;;;;;;0.80;0.80;;;;;;;;;;4978432;28;20305;-83
2022/09/13 15:10:08;;;;;;;4.57;1.07;;;;;;;;;;4978173;28;20287;-84
2022/09/13 15:12:37;;;;;;;0.60;0.40;;;;;;;;;;4995845;28;20252;-82
2022/09/13 15:15:27;;;;;;;0.50;0.50;;;;;;;;;;4977911;28;20205;-82
2022/09/13 15:17:56;;;;;;;4.13;1.50;;;;;;;;;;4977585;28;20290;-83
2022/09/13 15:20:26;;;;;;;0.67;0.40;;;;;;;;;;4977793;28;20223;-83
2022/09/13 15:22:54;;;;;;;3.00;1.03;;;;;;;;;;4978103;28;20286;-83
2022/09/13 15:25:24;;;;;;;3.00;1.17;;;;;;;;;;4977852;28;20233;-83
2022/09/13 15:27:53;;;;;;;1.20;0.83;;;;;;;;;;4978389;28;20200;-83
2022/09/13 15:30:27;;;;;;;6.87;1.17;;;;;;;;;;4977988;28;20223;-83
2022/09/13 15:33:06;;;;;;;0.80;0.80;;;;;;;;;;4977192;28;20201;-83
2022/09/13 15:35:37;;;;;;;1.27;1.13;;;;;;;;;;4977958;28;20242;-83
2022/09/13 15:38:16;;;;;;;1.57;1.00;;;;;;;;;;4977452;28;20202;-83
2022/09/13 15:40:46;;;;;;;3.83;0.80;;;;;;;;;;4995104;28;20239;-83
2022/09/13 15:43:14;;;;;;;1.80;1.00;;;;;;;;;;4995400;28;20198;-83
2022/09/13 15:45:45;;;;;;;0.50;0.50;;;;;;;;;;4977919;28;20215;-83
2022/09/13 15:48:18;;;;;;;1.03;0.90;;;;;;;;;;4977742;28;20232;-83
2022/09/13 15:51:04;;;;;;;2.93;1.00;;;;;;;;;;4994857;28;20195;-83
2022/09/13 15:53:32;;;;;;;0.80;0.80;;;;;;;;;;4977394;28;20229;-83
2022/09/13 15:56:01;;;;;;;0.60;0.60;;;;;;;;;;4977586;28;20240;-83
2022/09/13 15:58:30;;;;;;;0.40;0.40;;;;;;;;;;4977917;28;20203;-83
2022/09/13 16:00:59;;;;;;;1.73;1.07;;;;;;;;;;4970649;28;20235;-83
2022/09/13 16:03:28;;;;;;;1.80;1.27;;;;;;;;;;4988514;28;20211;-82
2022/09/13 16:05:56;;;;;;;2.57;0.60;;;;;;;;;;4977243;28;20205;-82
2022/09/13 16:08:25;;;;;;;2.10;0.50;;;;;;;;;;4977509;28;20209;-83
2022/09/13 16:10:53;;;;;;;0.73;0.73;;;;;;;;;;4977508;28;20225;-82
2022/09/13 16:13:22;;;;;;;0.30;0.30;;;;;;;;;;4977255;28;20295;-82